sensor_id;sensor_type;location;lat;lon;timestamp;temperature;humidity
23251;DHT22;11794;49.730;10.088;2022-08-14T00:01:36;20.50;99.90
23251;DHT22;11794;49.730;10.088;2022-08-14T00:04:01;20.60;99.90
23251;DHT22;11794;49.730;10.088;2022-08-14T00:06:27;20.50;99.90
23251;DHT22;11794;49.730;10.088;2022-08-14T00:08:52;20.50;99.90
23251;DHT22;11794;49.730;10.088;2022-08-14T00:11:18;20.50;99.90
23251;DHT22;11794;49.730;10.088;2022-08-14T00:13:44;20.50;99.90
23251;DHT22;11794;49.730;10.088;2022-08-14T00:16:10;20.50;99.90
23251;DHT22;11794;49.730;10.088;2022-08-14T00:18:38;20.50;99.90
23251;DHT22;11794;49.730;10.088;2022-08-14T00:21:04;20.50;99.90
23251;DHT22;11794;49.730;10.088;2022-08-14T00:23:30;20.40;99.90
23251;DHT22;11794;49.730;10.088;2022-08-14T00:25:55;20.40;99.90
23251;DHT22;11794;49.730;10.088;2022-08-14T00:28:22;20.40;99.90
23251;DHT22;11794;49.730;10.088;2022-08-14T00:30:55;20.30;99.90
23251;DHT22;11794;49.730;10.088;2022-08-14T00:33:23;20.30;99.90
23251;DHT22;11794;49.730;10.088;2022-08-14T00:35:49;20.30;99.90
23251;DHT22;11794;49.730;10.088;2022-08-14T00:38:16;20.30;99.90
23251;DHT22;11794;49.730;10.088;2022-08-14T00:40:42;20.30;99.90
23251;DHT22;11794;49.730;10.088;2022-08-14T00:43:07;20.20;99.90
23251;DHT22;11794;49.730;10.088;2022-08-14T00:45:34;20.20;99.90
23251;DHT22;11794;49.730;10.088;2022-08-14T00:48:00;20.20;99.90
23251;DHT22;11794;49.730;10.088;2022-08-14T00:50:27;20.10;99.90
23251;DHT22;11794;49.730;10.088;2022-08-14T00:52:56;20.10;99.90
23251;DHT22;11794;49.730;10.088;2022-08-14T00:55:23;20.00;99.90
23251;DHT22;11794;49.730;10.088;2022-08-14T00:57:49;20.00;99.90
23251;DHT22;11794;49.730;10.088;2022-08-14T01:00:34;20.00;99.90
23251;DHT22;11794;49.730;10.088;2022-08-14T01:03:01;20.00;99.90
23251;DHT22;11794;49.730;10.088;2022-08-14T01:05:28;20.00;99.90
23251;DHT22;11794;49.730;10.088;2022-08-14T01:07:54;20.00;99.90
23251;DHT22;11794;49.730;10.088;2022-08-14T01:10:24;19.90;99.90
23251;DHT22;11794;49.730;10.088;2022-08-14T01:13:26;19.90;99.90
23251;DHT22;11794;49.730;10.088;2022-08-14T01:15:54;19.80;99.90
23251;DHT22;11794;49.730;10.088;2022-08-14T01:18:21;19.80;99.90
23251;DHT22;11794;49.730;10.088;2022-08-14T01:21:06;19.80;99.90
23251;DHT22;11794;49.730;10.088;2022-08-14T01:23:42;19.70;99.90
23251;DHT22;11794;49.730;10.088;2022-08-14T01:26:09;19.70;99.90
23251;DHT22;11794;49.730;10.088;2022-08-14T01:31:56;19.70;99.90
23251;DHT22;11794;49.730;10.088;2022-08-14T01:34:26;19.60;99.90
23251;DHT22;11794;49.730;10.088;2022-08-14T01:36:51;19.60;99.90
23251;DHT22;11794;49.730;10.088;2022-08-14T01:39:18;19.50;99.90
23251;DHT22;11794;49.730;10.088;2022-08-14T01:41:47;19.50;99.90
23251;DHT22;11794;49.730;10.088;2022-08-14T01:44:17;19.50;99.90
23251;DHT22;11794;49.730;10.088;2022-08-14T01:46:43;19.40;99.90
23251;DHT22;11794;49.730;10.088;2022-08-14T01:49:12;19.40;99.90
23251;DHT22;11794;49.730;10.088;2022-08-14T01:51:40;19.30;99.90
23251;DHT22;11794;49.730;10.088;2022-08-14T01:54:17;19.30;99.90
23251;DHT22;11794;49.730;10.088;2022-08-14T01:56:51;19.30;99.90
23251;DHT22;11794;49.730;10.088;2022-08-14T02:01:44;19.20;99.90
23251;DHT22;11794;49.730;10.088;2022-08-14T02:04:10;19.10;99.90
23251;DHT22;11794;49.730;10.088;2022-08-14T02:06:36;19.10;99.90
23251;DHT22;11794;49.730;10.088;2022-08-14T02:09:06;19.00;99.90
23251;DHT22;11794;49.730;10.088;2022-08-14T02:11:32;19.00;99.90
23251;DHT22;11794;49.730;10.088;2022-08-14T02:14:08;19.00;99.90
23251;DHT22;11794;49.730;10.088;2022-08-14T02:16:43;18.90;99.90
23251;DHT22;11794;49.730;10.088;2022-08-14T02:19:19;18.90;99.90
23251;DHT22;11794;49.730;10.088;2022-08-14T02:21:46;18.80;99.90
23251;DHT22;11794;49.730;10.088;2022-08-14T02:24:13;18.80;99.90
23251;DHT22;11794;49.730;10.088;2022-08-14T02:26:41;18.80;99.90
23251;DHT22;11794;49.730;10.088;2022-08-14T02:29:10;18.80;99.90
23251;DHT22;11794;49.730;10.088;2022-08-14T02:31:41;18.70;99.90
23251;DHT22;11794;49.730;10.088;2022-08-14T02:34:10;18.70;99.90
23251;DHT22;11794;49.730;10.088;2022-08-14T02:36:37;18.60;99.90
23251;DHT22;11794;49.730;10.088;2022-08-14T02:39:05;18.60;99.90
23251;DHT22;11794;49.730;10.088;2022-08-14T02:41:32;18.60;99.90
23251;DHT22;11794;49.730;10.088;2022-08-14T02:44:01;18.60;99.90
23251;DHT22;11794;49.730;10.088;2022-08-14T02:46:26;18.60;99.90
23251;DHT22;11794;49.730;10.088;2022-08-14T02:48:52;18.60;99.90
23251;DHT22;11794;49.730;10.088;2022-08-14T02:51:18;18.60;99.90
23251;DHT22;11794;49.730;10.088;2022-08-14T02:53:44;18.50;99.90
23251;DHT22;11794;49.730;10.088;2022-08-14T02:56:14;18.50;99.90
23251;DHT22;11794;49.730;10.088;2022-08-14T02:58:46;18.50;99.90
23251;DHT22;11794;49.730;10.088;2022-08-14T03:01:13;18.40;99.90
23251;DHT22;11794;49.730;10.088;2022-08-14T03:03:39;18.40;99.90
23251;DHT22;11794;49.730;10.088;2022-08-14T03:06:07;18.40;99.90
23251;DHT22;11794;49.730;10.088;2022-08-14T03:08:34;18.40;99.90
23251;DHT22;11794;49.730;10.088;2022-08-14T03:11:00;18.30;99.90
23251;DHT22;11794;49.730;10.088;2022-08-14T03:13:46;18.30;99.90
23251;DHT22;11794;49.730;10.088;2022-08-14T03:16:14;18.30;99.90
23251;DHT22;11794;49.730;10.088;2022-08-14T03:18:42;18.30;99.90
23251;DHT22;11794;49.730;10.088;2022-08-14T03:21:11;18.30;99.90
23251;DHT22;11794;49.730;10.088;2022-08-14T03:23:43;18.20;99.90
23251;DHT22;11794;49.730;10.088;2022-08-14T03:26:11;18.20;99.90
23251;DHT22;11794;49.730;10.088;2022-08-14T03:28:37;18.20;99.90
23251;DHT22;11794;49.730;10.088;2022-08-14T03:31:06;18.20;99.90
23251;DHT22;11794;49.730;10.088;2022-08-14T03:33:32;18.20;99.90
23251;DHT22;11794;49.730;10.088;2022-08-14T03:35:59;18.20;99.90
23251;DHT22;11794;49.730;10.088;2022-08-14T03:38:25;18.20;99.90
23251;DHT22;11794;49.730;10.088;2022-08-14T03:40:51;18.20;99.90
23251;DHT22;11794;49.730;10.088;2022-08-14T03:43:16;18.10;99.90
23251;DHT22;11794;49.730;10.088;2022-08-14T03:45:42;18.10;99.90
23251;DHT22;11794;49.730;10.088;2022-08-14T03:48:17;18.10;99.90
23251;DHT22;11794;49.730;10.088;2022-08-14T03:50:49;18.10;99.90
23251;DHT22;11794;49.730;10.088;2022-08-14T03:53:17;18.00;99.90
23251;DHT22;11794;49.730;10.088;2022-08-14T03:55:45;18.00;99.90
23251;DHT22;11794;49.730;10.088;2022-08-14T03:58:11;17.90;99.90
23251;DHT22;11794;49.730;10.088;2022-08-14T04:00:38;17.90;99.90
23251;DHT22;11794;49.730;10.088;2022-08-14T04:03:07;17.90;99.90
23251;DHT22;11794;49.730;10.088;2022-08-14T04:05:33;17.80;99.90
23251;DHT22;11794;49.730;10.088;2022-08-14T04:07:59;17.80;99.90
23251;DHT22;11794;49.730;10.088;2022-08-14T04:10:25;17.80;99.90
23251;DHT22;11794;49.730;10.088;2022-08-14T04:12:51;17.80;99.90
23251;DHT22;11794;49.730;10.088;2022-08-14T04:15:17;17.80;99.90
23251;DHT22;11794;49.730;10.088;2022-08-14T04:17:44;17.80;99.90
23251;DHT22;11794;49.730;10.088;2022-08-14T04:20:10;17.80;99.90
23251;DHT22;11794;49.730;10.088;2022-08-14T04:22:36;17.70;99.90
23251;DHT22;11794;49.730;10.088;2022-08-14T04:25:08;17.70;99.90
23251;DHT22;11794;49.730;10.088;2022-08-14T04:27:34;17.70;99.90
23251;DHT22;11794;49.730;10.088;2022-08-14T04:30:01;17.70;99.90
23251;DHT22;11794;49.730;10.088;2022-08-14T04:32:27;17.80;99.90
23251;DHT22;11794;49.730;10.088;2022-08-14T04:34:53;17.80;99.90
23251;DHT22;11794;49.730;10.088;2022-08-14T04:37:21;17.70;99.90
23251;DHT22;11794;49.730;10.088;2022-08-14T04:40:06;17.70;99.90
23251;DHT22;11794;49.730;10.088;2022-08-14T04:42:51;17.70;99.90
23251;DHT22;11794;49.730;10.088;2022-08-14T04:45:35;17.70;99.90
23251;DHT22;11794;49.730;10.088;2022-08-14T04:48:10;17.60;99.90
23251;DHT22;11794;49.730;10.088;2022-08-14T04:50:40;17.60;99.90
23251;DHT22;11794;49.730;10.088;2022-08-14T04:53:07;17.60;99.90
23251;DHT22;11794;49.730;10.088;2022-08-14T04:55:32;17.60;99.90
23251;DHT22;11794;49.730;10.088;2022-08-14T04:57:58;17.70;99.90
23251;DHT22;11794;49.730;10.088;2022-08-14T05:00:24;17.70;99.90
23251;DHT22;11794;49.730;10.088;2022-08-14T05:02:49;17.80;99.90
23251;DHT22;11794;49.730;10.088;2022-08-14T05:05:15;17.90;99.90
23251;DHT22;11794;49.730;10.088;2022-08-14T05:07:41;17.90;99.90
23251;DHT22;11794;49.730;10.088;2022-08-14T05:10:07;18.00;99.90
23251;DHT22;11794;49.730;10.088;2022-08-14T05:12:32;18.00;99.90
23251;DHT22;11794;49.730;10.088;2022-08-14T05:14:58;18.10;99.90
23251;DHT22;11794;49.730;10.088;2022-08-14T05:17:24;18.20;99.90
23251;DHT22;11794;49.730;10.088;2022-08-14T05:19:52;18.20;99.90
23251;DHT22;11794;49.730;10.088;2022-08-14T05:22:18;18.30;99.90
23251;DHT22;11794;49.730;10.088;2022-08-14T05:24:45;18.30;99.90
23251;DHT22;11794;49.730;10.088;2022-08-14T05:27:15;18.40;99.90
23251;DHT22;11794;49.730;10.088;2022-08-14T05:29:44;18.40;99.90
23251;DHT22;11794;49.730;10.088;2022-08-14T05:32:10;18.50;99.90
23251;DHT22;11794;49.730;10.088;2022-08-14T05:34:36;18.60;99.90
23251;DHT22;11794;49.730;10.088;2022-08-14T05:37:02;18.70;99.90
23251;DHT22;11794;49.730;10.088;2022-08-14T05:39:28;18.80;99.90
23251;DHT22;11794;49.730;10.088;2022-08-14T05:41:54;18.90;99.90
23251;DHT22;11794;49.730;10.088;2022-08-14T05:44:21;19.00;99.90
23251;DHT22;11794;49.730;10.088;2022-08-14T05:46:46;19.10;99.90
23251;DHT22;11794;49.730;10.088;2022-08-14T05:49:13;19.20;99.90
23251;DHT22;11794;49.730;10.088;2022-08-14T05:51:38;19.40;99.90
23251;DHT22;11794;49.730;10.088;2022-08-14T05:54:05;19.50;99.90
23251;DHT22;11794;49.730;10.088;2022-08-14T05:56:31;19.60;99.90
23251;DHT22;11794;49.730;10.088;2022-08-14T05:58:57;19.70;99.90
23251;DHT22;11794;49.730;10.088;2022-08-14T06:01:23;19.80;99.90
23251;DHT22;11794;49.730;10.088;2022-08-14T06:03:49;19.90;99.90
23251;DHT22;11794;49.730;10.088;2022-08-14T06:06:14;20.10;99.90
23251;DHT22;11794;49.730;10.088;2022-08-14T06:08:40;20.20;99.90
23251;DHT22;11794;49.730;10.088;2022-08-14T06:11:06;20.30;99.90
23251;DHT22;11794;49.730;10.088;2022-08-14T06:13:34;20.40;99.90
23251;DHT22;11794;49.730;10.088;2022-08-14T06:16:00;20.60;99.90
23251;DHT22;11794;49.730;10.088;2022-08-14T06:18:26;20.70;99.90
23251;DHT22;11794;49.730;10.088;2022-08-14T06:20:51;20.70;99.90
23251;DHT22;11794;49.730;10.088;2022-08-14T06:23:17;20.70;99.90
23251;DHT22;11794;49.730;10.088;2022-08-14T06:25:43;20.80;99.90
23251;DHT22;11794;49.730;10.088;2022-08-14T06:28:16;20.90;99.90
23251;DHT22;11794;49.730;10.088;2022-08-14T06:30:41;21.00;99.90
23251;DHT22;11794;49.730;10.088;2022-08-14T06:33:07;21.10;99.90
23251;DHT22;11794;49.730;10.088;2022-08-14T06:35:33;21.20;99.90
23251;DHT22;11794;49.730;10.088;2022-08-14T06:37:59;21.20;99.90
23251;DHT22;11794;49.730;10.088;2022-08-14T06:40:31;21.20;99.90
23251;DHT22;11794;49.730;10.088;2022-08-14T06:43:06;21.40;99.90
23251;DHT22;11794;49.730;10.088;2022-08-14T06:45:33;21.30;99.90
23251;DHT22;11794;49.730;10.088;2022-08-14T06:47:59;21.40;99.90
23251;DHT22;11794;49.730;10.088;2022-08-14T06:50:26;21.40;99.90
23251;DHT22;11794;49.730;10.088;2022-08-14T06:52:52;21.50;99.90
23251;DHT22;11794;49.730;10.088;2022-08-14T06:55:18;21.60;99.90
23251;DHT22;11794;49.730;10.088;2022-08-14T06:57:48;21.60;99.90
23251;DHT22;11794;49.730;10.088;2022-08-14T07:00:18;21.70;99.90
23251;DHT22;11794;49.730;10.088;2022-08-14T07:02:44;21.90;99.90
23251;DHT22;11794;49.730;10.088;2022-08-14T07:05:29;22.10;99.90
23251;DHT22;11794;49.730;10.088;2022-08-14T07:08:23;22.20;99.90
23251;DHT22;11794;49.730;10.088;2022-08-14T07:10:54;22.20;99.90
23251;DHT22;11794;49.730;10.088;2022-08-14T07:13:20;22.40;99.90
23251;DHT22;11794;49.730;10.088;2022-08-14T07:15:48;22.50;99.90
23251;DHT22;11794;49.730;10.088;2022-08-14T07:18:19;22.70;99.90
23251;DHT22;11794;49.730;10.088;2022-08-14T07:20:45;22.80;99.90
23251;DHT22;11794;49.730;10.088;2022-08-14T07:23:11;23.00;99.90
23251;DHT22;11794;49.730;10.088;2022-08-14T07:25:38;23.10;99.90
23251;DHT22;11794;49.730;10.088;2022-08-14T07:28:09;23.30;99.90
23251;DHT22;11794;49.730;10.088;2022-08-14T07:30:35;23.30;99.90
23251;DHT22;11794;49.730;10.088;2022-08-14T07:33:02;23.40;99.90
23251;DHT22;11794;49.730;10.088;2022-08-14T07:35:28;23.50;99.90
23251;DHT22;11794;49.730;10.088;2022-08-14T07:37:53;23.80;99.90
23251;DHT22;11794;49.730;10.088;2022-08-14T07:40:19;24.00;99.90
23251;DHT22;11794;49.730;10.088;2022-08-14T07:42:44;24.30;99.90
23251;DHT22;11794;49.730;10.088;2022-08-14T07:45:10;24.20;99.90
23251;DHT22;11794;49.730;10.088;2022-08-14T07:47:40;24.30;99.90
23251;DHT22;11794;49.730;10.088;2022-08-14T07:50:12;24.50;99.90
23251;DHT22;11794;49.730;10.088;2022-08-14T07:52:38;24.60;99.90
23251;DHT22;11794;49.730;10.088;2022-08-14T07:55:05;25.10;99.90
23251;DHT22;11794;49.730;10.088;2022-08-14T07:57:32;25.60;99.90
23251;DHT22;11794;49.730;10.088;2022-08-14T07:59:58;26.10;99.90
23251;DHT22;11794;49.730;10.088;2022-08-14T08:02:27;26.50;99.90
23251;DHT22;11794;49.730;10.088;2022-08-14T08:04:54;26.90;99.90
23251;DHT22;11794;49.730;10.088;2022-08-14T08:07:24;27.10;99.20
23251;DHT22;11794;49.730;10.088;2022-08-14T08:09:54;27.30;98.30
23251;DHT22;11794;49.730;10.088;2022-08-14T08:12:20;27.70;97.50
23251;DHT22;11794;49.730;10.088;2022-08-14T08:14:48;27.90;96.60
23251;DHT22;11794;49.730;10.088;2022-08-14T08:17:17;28.00;96.00
23251;DHT22;11794;49.730;10.088;2022-08-14T08:19:45;28.20;95.80
23251;DHT22;11794;49.730;10.088;2022-08-14T08:22:11;27.80;95.40
23251;DHT22;11794;49.730;10.088;2022-08-14T08:24:37;27.90;95.90
23251;DHT22;11794;49.730;10.088;2022-08-14T08:27:16;28.40;95.30
23251;DHT22;11794;49.730;10.088;2022-08-14T08:29:42;28.90;94.00
23251;DHT22;11794;49.730;10.088;2022-08-14T08:32:08;29.30;93.10
23251;DHT22;11794;49.730;10.088;2022-08-14T08:34:44;29.40;92.90
23251;DHT22;11794;49.730;10.088;2022-08-14T08:37:11;29.40;92.70
23251;DHT22;11794;49.730;10.088;2022-08-14T08:39:44;29.80;92.40
23251;DHT22;11794;49.730;10.088;2022-08-14T08:42:10;30.30;91.30
23251;DHT22;11794;49.730;10.088;2022-08-14T08:44:36;30.50;90.40
23251;DHT22;11794;49.730;10.088;2022-08-14T08:47:02;30.50;88.20
23251;DHT22;11794;49.730;10.088;2022-08-14T08:49:36;30.60;88.20
23251;DHT22;11794;49.730;10.088;2022-08-14T08:52:06;30.60;88.70
23251;DHT22;11794;49.730;10.088;2022-08-14T08:54:33;31.10;88.30
23251;DHT22;11794;49.730;10.088;2022-08-14T08:56:59;31.50;86.50
23251;DHT22;11794;49.730;10.088;2022-08-14T08:59:27;31.00;85.80
23251;DHT22;11794;49.730;10.088;2022-08-14T09:01:57;31.30;86.10
23251;DHT22;11794;49.730;10.088;2022-08-14T09:04:29;31.60;84.40
23251;DHT22;11794;49.730;10.088;2022-08-14T09:06:55;31.90;83.40
23251;DHT22;11794;49.730;10.088;2022-08-14T09:09:24;32.30;82.30
23251;DHT22;11794;49.730;10.088;2022-08-14T09:11:52;32.60;81.50
23251;DHT22;11794;49.730;10.088;2022-08-14T09:14:21;32.70;80.00
23251;DHT22;11794;49.730;10.088;2022-08-14T09:16:48;32.40;79.60
23251;DHT22;11794;49.730;10.088;2022-08-14T09:19:14;31.80;79.80
23251;DHT22;11794;49.730;10.088;2022-08-14T09:21:40;31.80;81.40
23251;DHT22;11794;49.730;10.088;2022-08-14T09:24:07;32.20;80.50
23251;DHT22;11794;49.730;10.088;2022-08-14T09:26:35;32.80;78.90
23251;DHT22;11794;49.730;10.088;2022-08-14T09:29:01;33.40;77.00
23251;DHT22;11794;49.730;10.088;2022-08-14T09:31:28;33.50;76.60
23251;DHT22;11794;49.730;10.088;2022-08-14T09:37:05;33.40;74.50
23251;DHT22;11794;49.730;10.088;2022-08-14T09:39:55;33.80;72.20
23251;DHT22;11794;49.730;10.088;2022-08-14T09:45:18;34.00;70.40
23251;DHT22;11794;49.730;10.088;2022-08-14T09:47:55;34.30;66.30
23251;DHT22;11794;49.730;10.088;2022-08-14T09:50:42;34.00;66.30
23251;DHT22;11794;49.730;10.088;2022-08-14T09:53:10;34.10;67.00
23251;DHT22;11794;49.730;10.088;2022-08-14T09:55:36;33.70;65.70
23251;DHT22;11794;49.730;10.088;2022-08-14T09:58:19;34.00;66.80
23251;DHT22;11794;49.730;10.088;2022-08-14T10:00:47;34.10;65.50
23251;DHT22;11794;49.730;10.088;2022-08-14T10:03:33;33.40;66.20
23251;DHT22;11794;49.730;10.088;2022-08-14T10:06:04;33.50;67.50
23251;DHT22;11794;49.730;10.088;2022-08-14T10:08:40;33.30;67.50
23251;DHT22;11794;49.730;10.088;2022-08-14T10:11:21;33.50;67.20
23251;DHT22;11794;49.730;10.088;2022-08-14T10:13:49;33.80;66.40
23251;DHT22;11794;49.730;10.088;2022-08-14T10:16:20;34.00;65.80
23251;DHT22;11794;49.730;10.088;2022-08-14T10:18:49;33.60;66.20
23251;DHT22;11794;49.730;10.088;2022-08-14T10:21:25;33.50;67.00
23251;DHT22;11794;49.730;10.088;2022-08-14T10:23:50;34.30;66.10
23251;DHT22;11794;49.730;10.088;2022-08-14T10:26:18;34.40;65.20
23251;DHT22;11794;49.730;10.088;2022-08-14T10:28:49;34.30;66.40
23251;DHT22;11794;49.730;10.088;2022-08-14T10:31:25;34.70;66.60
23251;DHT22;11794;49.730;10.088;2022-08-14T10:34:03;35.20;65.50
23251;DHT22;11794;49.730;10.088;2022-08-14T10:36:38;35.40;63.30
23251;DHT22;11794;49.730;10.088;2022-08-14T10:39:07;35.90;63.40
23251;DHT22;11794;49.730;10.088;2022-08-14T10:41:35;35.80;61.80
23251;DHT22;11794;49.730;10.088;2022-08-14T10:44:13;35.90;62.00
23251;DHT22;11794;49.730;10.088;2022-08-14T10:46:59;35.90;62.10
23251;DHT22;11794;49.730;10.088;2022-08-14T10:49:28;36.40;62.90
23251;DHT22;11794;49.730;10.088;2022-08-14T10:52:06;36.60;61.00
23251;DHT22;11794;49.730;10.088;2022-08-14T10:54:43;36.70;61.70
23251;DHT22;11794;49.730;10.088;2022-08-14T10:59:53;36.30;59.70
23251;DHT22;11794;49.730;10.088;2022-08-14T11:02:27;35.30;60.90
23251;DHT22;11794;49.730;10.088;2022-08-14T11:05:13;35.10;62.90
23251;DHT22;11794;49.730;10.088;2022-08-14T11:10:20;36.70;61.70
23251;DHT22;11794;49.730;10.088;2022-08-14T11:12:50;37.30;60.60
23251;DHT22;11794;49.730;10.088;2022-08-14T11:15:19;37.30;59.60
23251;DHT22;11794;49.730;10.088;2022-08-14T11:17:46;37.70;58.60
23251;DHT22;11794;49.730;10.088;2022-08-14T11:20:14;37.00;59.20
23251;DHT22;11794;49.730;10.088;2022-08-14T11:22:40;37.40;58.50
23251;DHT22;11794;49.730;10.088;2022-08-14T11:25:09;37.80;58.30
23251;DHT22;11794;49.730;10.088;2022-08-14T11:27:35;38.30;56.50
23251;DHT22;11794;49.730;10.088;2022-08-14T11:30:06;38.60;56.50
23251;DHT22;11794;49.730;10.088;2022-08-14T11:32:32;38.30;56.90
23251;DHT22;11794;49.730;10.088;2022-08-14T11:34:59;38.20;57.40
23251;DHT22;11794;49.730;10.088;2022-08-14T11:37:25;37.60;57.60
23251;DHT22;11794;49.730;10.088;2022-08-14T11:39:52;36.80;58.70
23251;DHT22;11794;49.730;10.088;2022-08-14T11:42:20;36.60;59.60
23251;DHT22;11794;49.730;10.088;2022-08-14T11:44:46;36.60;59.00
23251;DHT22;11794;49.730;10.088;2022-08-14T11:47:13;36.80;59.60
23251;DHT22;11794;49.730;10.088;2022-08-14T11:49:47;37.40;58.10
23251;DHT22;11794;49.730;10.088;2022-08-14T11:52:16;37.70;58.40
23251;DHT22;11794;49.730;10.088;2022-08-14T11:54:56;38.00;57.10
23251;DHT22;11794;49.730;10.088;2022-08-14T11:57:22;38.20;57.40
23251;DHT22;11794;49.730;10.088;2022-08-14T11:59:47;38.60;56.10
23251;DHT22;11794;49.730;10.088;2022-08-14T12:02:14;38.10;55.50
23251;DHT22;11794;49.730;10.088;2022-08-14T12:04:51;37.50;56.30
23251;DHT22;11794;49.730;10.088;2022-08-14T12:07:17;37.70;55.80
23251;DHT22;11794;49.730;10.088;2022-08-14T12:09:44;37.90;56.10
23251;DHT22;11794;49.730;10.088;2022-08-14T12:12:17;38.30;55.40
23251;DHT22;11794;49.730;10.088;2022-08-14T12:14:59;38.70;54.50
23251;DHT22;11794;49.730;10.088;2022-08-14T12:17:29;38.10;55.20
23251;DHT22;11794;49.730;10.088;2022-08-14T12:19:58;38.20;55.50
23251;DHT22;11794;49.730;10.088;2022-08-14T12:22:39;37.90;55.40
23251;DHT22;11794;49.730;10.088;2022-08-14T12:25:07;37.10;56.20
23251;DHT22;11794;49.730;10.088;2022-08-14T12:27:42;36.10;57.70
23251;DHT22;11794;49.730;10.088;2022-08-14T12:30:11;35.20;59.80
23251;DHT22;11794;49.730;10.088;2022-08-14T12:32:38;35.20;59.30
23251;DHT22;11794;49.730;10.088;2022-08-14T12:35:05;35.70;58.20
23251;DHT22;11794;49.730;10.088;2022-08-14T12:37:31;36.80;58.30
23251;DHT22;11794;49.730;10.088;2022-08-14T12:40:08;38.00;56.50
23251;DHT22;11794;49.730;10.088;2022-08-14T12:42:34;38.70;54.40
23251;DHT22;11794;49.730;10.088;2022-08-14T12:45:00;39.40;55.20
23251;DHT22;11794;49.730;10.088;2022-08-14T12:47:26;39.70;54.30
23251;DHT22;11794;49.730;10.088;2022-08-14T12:49:55;40.10;53.90
23251;DHT22;11794;49.730;10.088;2022-08-14T12:52:33;40.10;53.50
23251;DHT22;11794;49.730;10.088;2022-08-14T12:55:02;40.60;53.50
23251;DHT22;11794;49.730;10.088;2022-08-14T13:00:11;41.00;52.10
23251;DHT22;11794;49.730;10.088;2022-08-14T13:02:40;40.50;51.90
23251;DHT22;11794;49.730;10.088;2022-08-14T13:05:08;39.20;52.90
23251;DHT22;11794;49.730;10.088;2022-08-14T13:07:34;38.00;54.30
23251;DHT22;11794;49.730;10.088;2022-08-14T13:10:02;37.00;55.80
23251;DHT22;11794;49.730;10.088;2022-08-14T13:12:28;37.60;55.80
23251;DHT22;11794;49.730;10.088;2022-08-14T13:14:56;39.40;54.80
23251;DHT22;11794;49.730;10.088;2022-08-14T13:17:23;40.80;52.70
23251;DHT22;11794;49.730;10.088;2022-08-14T13:19:51;41.10;51.80
23251;DHT22;11794;49.730;10.088;2022-08-14T13:22:22;41.60;50.80
23251;DHT22;11794;49.730;10.088;2022-08-14T13:24:51;41.30;50.30
23251;DHT22;11794;49.730;10.088;2022-08-14T13:27:23;42.00;49.70
23251;DHT22;11794;49.730;10.088;2022-08-14T13:29:50;42.00;49.70
23251;DHT22;11794;49.730;10.088;2022-08-14T13:32:19;42.30;49.00
23251;DHT22;11794;49.730;10.088;2022-08-14T13:34:48;41.00;48.60
23251;DHT22;11794;49.730;10.088;2022-08-14T13:37:15;38.90;50.70
23251;DHT22;11794;49.730;10.088;2022-08-14T13:39:49;37.00;53.20
23251;DHT22;11794;49.730;10.088;2022-08-14T13:42:17;37.00;53.20
23251;DHT22;11794;49.730;10.088;2022-08-14T13:44:48;37.50;52.50
23251;DHT22;11794;49.730;10.088;2022-08-14T13:47:15;38.50;52.10
23251;DHT22;11794;49.730;10.088;2022-08-14T13:49:47;39.30;50.80
23251;DHT22;11794;49.730;10.088;2022-08-14T13:52:17;39.50;50.70
23251;DHT22;11794;49.730;10.088;2022-08-14T13:54:45;40.30;50.60
23251;DHT22;11794;49.730;10.088;2022-08-14T13:57:12;41.10;50.00
23251;DHT22;11794;49.730;10.088;2022-08-14T13:59:43;42.30;49.00
23251;DHT22;11794;49.730;10.088;2022-08-14T14:02:10;42.00;47.20
23251;DHT22;11794;49.730;10.088;2022-08-14T14:04:41;41.90;48.20
23251;DHT22;11794;49.730;10.088;2022-08-14T14:07:09;39.90;49.20
23251;DHT22;11794;49.730;10.088;2022-08-14T14:09:41;40.30;50.20
23251;DHT22;11794;49.730;10.088;2022-08-14T14:12:07;40.80;48.30
23251;DHT22;11794;49.730;10.088;2022-08-14T14:14:35;40.70;48.00
23251;DHT22;11794;49.730;10.088;2022-08-14T14:17:05;40.90;49.00
23251;DHT22;11794;49.730;10.088;2022-08-14T14:19:32;40.70;48.70
23251;DHT22;11794;49.730;10.088;2022-08-14T14:22:00;40.70;47.70
23251;DHT22;11794;49.730;10.088;2022-08-14T14:24:26;40.70;47.70
23251;DHT22;11794;49.730;10.088;2022-08-14T14:26:52;40.30;48.10
23251;DHT22;11794;49.730;10.088;2022-08-14T14:29:19;41.00;48.30
23251;DHT22;11794;49.730;10.088;2022-08-14T14:31:46;41.20;47.70
23251;DHT22;11794;49.730;10.088;2022-08-14T14:34:16;39.90;48.40
23251;DHT22;11794;49.730;10.088;2022-08-14T14:36:43;38.10;50.20
23251;DHT22;11794;49.730;10.088;2022-08-14T14:39:09;38.00;51.00
23251;DHT22;11794;49.730;10.088;2022-08-14T14:41:38;37.70;50.80
23251;DHT22;11794;49.730;10.088;2022-08-14T14:44:06;36.90;51.70
23251;DHT22;11794;49.730;10.088;2022-08-14T14:46:37;35.90;52.90
23251;DHT22;11794;49.730;10.088;2022-08-14T14:49:06;35.40;53.90
23251;DHT22;11794;49.730;10.088;2022-08-14T14:51:33;34.60;54.50
23251;DHT22;11794;49.730;10.088;2022-08-14T14:53:59;34.10;55.70
23251;DHT22;11794;49.730;10.088;2022-08-14T14:56:27;33.70;56.30
23251;DHT22;11794;49.730;10.088;2022-08-14T14:58:53;33.90;57.40
23251;DHT22;11794;49.730;10.088;2022-08-14T15:01:19;34.00;55.80
23251;DHT22;11794;49.730;10.088;2022-08-14T15:03:49;34.00;56.20
23251;DHT22;11794;49.730;10.088;2022-08-14T15:06:19;34.30;55.30
23251;DHT22;11794;49.730;10.088;2022-08-14T15:08:45;34.00;55.20
23251;DHT22;11794;49.730;10.088;2022-08-14T15:11:11;33.80;55.70
23251;DHT22;11794;49.730;10.088;2022-08-14T15:13:37;33.30;56.70
23251;DHT22;11794;49.730;10.088;2022-08-14T15:16:03;33.40;57.20
23251;DHT22;11794;49.730;10.088;2022-08-14T15:18:30;33.10;56.10
23251;DHT22;11794;49.730;10.088;2022-08-14T15:20:57;32.90;56.90
23251;DHT22;11794;49.730;10.088;2022-08-14T15:23:26;33.00;57.80
23251;DHT22;11794;49.730;10.088;2022-08-14T15:25:52;33.30;57.00
23251;DHT22;11794;49.730;10.088;2022-08-14T15:28:18;33.00;57.80
23251;DHT22;11794;49.730;10.088;2022-08-14T15:30:45;33.30;57.70
23251;DHT22;11794;49.730;10.088;2022-08-14T15:33:12;33.20;57.50
23251;DHT22;11794;49.730;10.088;2022-08-14T15:35:38;33.10;58.30
23251;DHT22;11794;49.730;10.088;2022-08-14T15:38:04;33.20;58.80
23251;DHT22;11794;49.730;10.088;2022-08-14T15:40:40;33.50;57.40
23251;DHT22;11794;49.730;10.088;2022-08-14T15:43:10;33.40;57.50
23251;DHT22;11794;49.730;10.088;2022-08-14T15:45:36;33.30;57.30